Time;durP1;ratioP1;P1;durP2;ratioP2;P2;SDS_P1;SDS_P2;PMS_P1;PMS_P2;Temp;Humidity;BMP_temperature;BMP_pressure;BME280_temperature;BME280_humidity;BME280_pressure;Samples;Min_cycle;Max_cycle;Signal;HPM_P1;HPM_P2
2023/12/29 00:01:11;;;;;;;;;;;;;;;2.69;64.59;95159.28;5020455;28;19991;-71
2023/12/29 00:03:36;;;;;;;;;;;;;;;3.06;62.56;95151.63;5018098;28;19936;-71
2023/12/29 00:06:02;;;;;;;;;;;;;;;3.07;63.59;95148.84;5016901;28;19960;-72
2023/12/29 00:08:27;;;;;;;;;;;;;;;3.77;60.99;95141.53;5019928;28;20409;-72
2023/12/29 00:10:53;;;;;;;;;;;;;;;2.77;64.33;95142.81;5019107;28;20010;-71
2023/12/29 00:13:22;;;;;;;;;;;;;;;3.21;62.65;95150.19;5018854;28;19921;-72
2023/12/29 00:15:50;;;;;;;;;;;;;;;3.48;61.07;95142.50;5016544;28;19932;-71
2023/12/29 00:18:15;;;;;;;;;;;;;;;2.89;63.66;95148.72;5016208;28;20023;-71
2023/12/29 00:20:40;;;;;;;;;;;;;;;3.49;61.01;95144.16;5015799;28;19932;-71
2023/12/29 00:23:06;;;;;;;;;;;;;;;3.41;60.31;95147.50;5014984;28;19964;-71
2023/12/29 00:25:31;;;;;;;;;;;;;;;2.84;62.35;95151.81;5014392;28;20630;-71
2023/12/29 00:27:57;;;;;;;;;;;;;;;3.14;62.04;95133.31;5016116;28;19929;-71
2023/12/29 00:30:22;;;;;;;;;;;;;;;3.29;61.21;95145.06;5015767;28;20016;-71
2023/12/29 00:32:47;;;;;;;;;;;;;;;3.46;60.46;95157.59;5016564;28;20028;-71
2023/12/29 00:35:13;;;;;;;;;;;;;;;3.17;60.98;95149.63;5011367;28;20512;-71
2023/12/29 00:37:38;;;;;;;;;;;;;;;3.13;61.80;95166.69;5016494;28;19925;-71
2023/12/29 00:40:05;;;;;;;;;;;;;;;3.14;61.57;95167.53;5016858;28;19925;-71
2023/12/29 00:42:30;;;;;;;;;;;;;;;2.96;62.65;95180.59;5015934;28;20365;-71
2023/12/29 00:44:55;;;;;;;;;;;;;;;3.30;60.60;95180.06;5015972;28;19924;-71
2023/12/29 00:47:23;;;;;;;;;;;;;;;2.79;62.20;95180.28;5017079;28;20273;-71
2023/12/29 00:49:48;;;;;;;;;;;;;;;2.24;64.25;95165.91;5016999;28;19956;-71
2023/12/29 00:52:13;;;;;;;;;;;;;;;2.68;63.06;95156.81;5013147;28;19944;-71
2023/12/29 00:54:39;;;;;;;;;;;;;;;2.44;64.45;95163.28;5015478;28;19921;-71
2023/12/29 00:57:05;;;;;;;;;;;;;;;2.73;63.79;95144.88;5015120;28;20506;-72
2023/12/29 00:59:30;;;;;;;;;;;;;;;2.52;64.58;95156.38;5015873;28;19929;-72
2023/12/29 01:01:55;;;;;;;;;;;;;;;2.33;64.61;95149.34;5015185;28;20382;-72
2023/12/29 01:04:20;;;;;;;;;;;;;;;2.72;63.53;95134.53;5015802;28;19925;-72
2023/12/29 01:06:46;;;;;;;;;;;;;;;2.13;65.94;95136.19;5015899;28;19944;-72
2023/12/29 01:09:11;;;;;;;;;;;;;;;2.27;64.96;95131.50;5016110;28;20681;-72
2023/12/29 01:11:37;;;;;;;;;;;;;;;2.72;64.46;95131.91;5016407;28;19925;-72
2023/12/29 01:14:02;;;;;;;;;;;;;;;2.27;65.82;95134.13;5012704;28;20085;-72
2023/12/29 01:16:27;;;;;;;;;;;;;;;1.74;64.92;95125.63;5016997;28;20433;-72
2023/12/29 01:18:52;;;;;;;;;;;;;;;2.22;64.89;95142.41;5016482;28;19921;-72
2023/12/29 01:21:18;;;;;;;;;;;;;;;2.23;65.60;95111.72;5012495;28;20617;-72
2023/12/29 01:23:43;;;;;;;;;;;;;;;2.95;62.74;95105.25;5015828;28;19929;-72
2023/12/29 01:26:08;;;;;;;;;;;;;;;2.73;64.14;95099.38;5014973;28;19925;-72
2023/12/29 01:28:34;;;;;;;;;;;;;;;2.18;65.48;95103.44;5012470;28;19921;-72
2023/12/29 01:30:59;;;;;;;;;;;;;;;3.10;62.62;95100.38;5016299;28;20364;-72
2023/12/29 01:33:24;;;;;;;;;;;;;;;2.89;63.45;95096.13;5018840;28;19921;-72
2023/12/29 01:35:50;;;;;;;;;;;;;;;2.43;63.16;95102.06;5019879;28;19928;-72
2023/12/29 01:38:15;;;;;;;;;;;;;;;3.01;63.29;95088.94;5020171;28;19925;-72
2023/12/29 01:40:44;;;;;;;;;;;;;;;2.71;63.09;95096.03;5020433;28;19921;-72
2023/12/29 01:43:09;;;;;;;;;;;;;;;2.16;65.87;95103.56;5019828;28;20607;-72
2023/12/29 01:45:35;;;;;;;;;;;;;;;3.14;63.17;95081.53;4999579;28;19921;-72
2023/12/29 01:48:00;;;;;;;;;;;;;;;3.38;61.67;95092.53;5018372;28;20479;-72
2023/12/29 01:50:25;;;;;;;;;;;;;;;3.20;61.95;95106.44;5020325;28;19921;-72
2023/12/29 01:52:51;;;;;;;;;;;;;;;2.71;63.59;95088.16;5016660;28;20002;-72
2023/12/29 01:55:17;;;;;;;;;;;;;;;2.96;62.24;95099.06;5018601;28;19975;-72
2023/12/29 01:57:42;;;;;;;;;;;;;;;1.73;66.43;95114.31;5018277;28;19924;-72
2023/12/29 02:00:08;;;;;;;;;;;;;;;2.02;66.46;95091.69;5021138;28;19921;-72
2023/12/29 02:02:33;;;;;;;;;;;;;;;2.75;63.21;95094.78;5019945;28;19959;-72
2023/12/29 02:05:00;;;;;;;;;;;;;;;2.58;63.48;95073.53;5020354;28;20334;-72
2023/12/29 02:07:29;;;;;;;;;;;;;;;2.51;63.70;95085.56;5018422;28;19933;-72
2023/12/29 02:09:54;;;;;;;;;;;;;;;2.26;65.74;95079.94;5019848;28;19960;-72
2023/12/29 02:12:20;;;;;;;;;;;;;;;2.30;65.38;95081.31;5020064;28;20367;-72
2023/12/29 02:14:45;;;;;;;;;;;;;;;2.46;64.59;95077.28;5016561;28;20002;-72
2023/12/29 02:17:11;;;;;;;;;;;;;;;2.60;64.04;95084.75;5016918;28;19972;-72
2023/12/29 02:19:40;;;;;;;;;;;;;;;2.53;63.95;95075.75;5012789;28;19925;-72
2023/12/29 02:22:05;;;;;;;;;;;;;;;2.19;65.01;95070.94;5016328;28;20242;-72
2023/12/29 02:24:31;;;;;;;;;;;;;;;2.20;65.21;95076.06;5015072;28;19925;-72
2023/12/29 02:27:02;;;;;;;;;;;;;;;2.16;65.06;95072.06;5018074;28;20024;-72
2023/12/29 02:29:27;;;;;;;;;;;;;;;1.80;66.30;95074.41;5018034;28;19921;-72
2023/12/29 02:31:53;;;;;;;;;;;;;;;1.94;66.45;95071.34;5018467;28;20211;-72
2023/12/29 02:34:18;;;;;;;;;;;;;;;1.50;68.24;95069.88;5017928;28;19921;-72
2023/12/29 02:36:43;;;;;;;;;;;;;;;1.72;67.27;95080.31;5018525;28;19924;-72
2023/12/29 02:39:09;;;;;;;;;;;;;;;1.11;70.01;95067.13;5018172;28;19952;-72
2023/12/29 02:41:35;;;;;;;;;;;;;;;1.58;68.56;95077.13;5017144;28;19917;-72
2023/12/29 02:44:00;;;;;;;;;;;;;;;1.69;68.03;95072.69;5015116;28;19929;-72
2023/12/29 02:46:26;;;;;;;;;;;;;;;1.74;67.78;95066.09;5025328;28;20023;-72
2023/12/29 02:48:51;;;;;;;;;;;;;;;2.30;65.89;95069.97;5016655;28;19921;-72
2023/12/29 02:51:16;;;;;;;;;;;;;;;2.12;66.73;95063.59;5020054;28;19972;-72
2023/12/29 02:53:41;;;;;;;;;;;;;;;1.80;67.33;95048.97;5017759;28;19921;-72
2023/12/29 02:56:06;;;;;;;;;;;;;;;2.27;65.10;95068.44;5018585;28;20569;-72
2023/12/29 02:58:32;;;;;;;;;;;;;;;2.00;66.73;95052.44;5021647;28;20066;-72
2023/12/29 03:00:57;;;;;;;;;;;;;;;2.37;65.84;95055.31;5018740;28;19952;-72
2023/12/29 03:03:22;;;;;;;;;;;;;;;2.16;66.30;95048.41;5018658;28;19932;-72
2023/12/29 03:05:47;;;;;;;;;;;;;;;2.38;64.77;95035.94;5019772;28;20640;-72
2023/12/29 03:08:13;;;;;;;;;;;;;;;2.69;63.80;95053.31;5018788;28;19921;-72
2023/12/29 03:10:38;;;;;;;;;;;;;;;2.99;63.18;95043.53;5020024;28;19970;-72
2023/12/29 03:13:04;;;;;;;;;;;;;;;1.92;64.89;95051.44;5015326;28;19921;-72
2023/12/29 03:15:29;;;;;;;;;;;;;;;2.04;66.79;95046.91;5021720;28;19921;-72
2023/12/29 03:17:54;;;;;;;;;;;;;;;1.55;68.58;95045.91;5019396;28;19971;-70
2023/12/29 03:20:19;;;;;;;;;;;;;;;1.81;66.82;95047.16;5017173;28;20864;-70
2023/12/29 03:22:45;;;;;;;;;;;;;;;1.69;68.31;95052.53;5017181;28;20084;-70
2023/12/29 03:25:10;;;;;;;;;;;;;;;1.54;68.57;95048.66;5024478;28;19917;-70
2023/12/29 03:27:35;;;;;;;;;;;;;;;1.66;67.87;95031.81;5019704;28;19929;-70
2023/12/29 03:30:00;;;;;;;;;;;;;;;1.13;70.20;95078.34;5017334;28;20726;-70
2023/12/29 03:32:26;;;;;;;;;;;;;;;1.20;70.43;95042.72;5021509;28;19960;-70
2023/12/29 03:34:51;;;;;;;;;;;;;;;1.73;68.50;95030.31;5018535;28;19933;-70
2023/12/29 03:37:16;;;;;;;;;;;;;;;2.16;67.04;95011.66;5020831;28;19951;-70
2023/12/29 03:39:41;;;;;;;;;;;;;;;1.69;67.58;95010.56;5018018;28;20360;-70
2023/12/29 03:42:07;;;;;;;;;;;;;;;1.02;70.96;95033.88;5017519;28;19921;-70
2023/12/29 03:44:32;;;;;;;;;;;;;;;1.61;68.71;95024.34;5016085;28;19940;-70
2023/12/29 03:46:57;;;;;;;;;;;;;;;1.80;68.14;95035.84;5017257;28;19925;-70
2023/12/29 03:49:22;;;;;;;;;;;;;;;1.43;69.97;95028.59;5018703;28;20357;-70
2023/12/29 03:51:48;;;;;;;;;;;;;;;1.36;70.34;95023.03;5016100;28;20019;-70
2023/12/29 03:54:13;;;;;;;;;;;;;;;1.63;69.23;95016.34;5012616;28;19975;-70
2023/12/29 03:56:38;;;;;;;;;;;;;;;2.05;68.23;95015.25;5021474;28;20341;-70
2023/12/29 03:59:03;;;;;;;;;;;;;;;1.92;68.43;95004.19;5019691;28;19925;-70
2023/12/29 04:01:29;;;;;;;;;;;;;;;1.72;68.93;95033.06;5016643;28;19995;-70
2023/12/29 04:03:54;;;;;;;;;;;;;;;2.06;67.87;94979.31;5017011;28;19929;-70
2023/12/29 04:06:19;;;;;;;;;;;;;;;2.11;67.52;94983.16;5019480;28;19935;-70
2023/12/29 04:08:44;;;;;;;;;;;;;;;2.00;68.00;94988.56;5017702;28;19991;-70
2023/12/29 04:11:10;;;;;;;;;;;;;;;1.93;68.05;94979.59;5018777;28;19929;-70
2023/12/29 04:13:36;;;;;;;;;;;;;;;1.60;69.12;94975.47;5016481;28;20357;-70
2023/12/29 04:16:01;;;;;;;;;;;;;;;1.41;69.81;95010.34;5017357;28;19932;-70
2023/12/29 04:18:26;;;;;;;;;;;;;;;1.56;69.32;94979.31;5016920;28;20569;-70
2023/12/29 04:20:52;;;;;;;;;;;;;;;2.12;66.79;94969.06;5010724;28;20222;-70
2023/12/29 04:23:17;;;;;;;;;;;;;;;1.93;68.75;94979.59;5017133;28;19937;-70
2023/12/29 04:25:42;;;;;;;;;;;;;;;1.30;70.35;95007.84;5017181;28;19931;-70
2023/12/29 04:28:07;;;;;;;;;;;;;;;1.61;69.48;95010.41;5016282;28;20314;-72
2023/12/29 04:30:33;;;;;;;;;;;;;;;1.76;69.56;94997.69;5016788;28;20024;-72
2023/12/29 04:32:58;;;;;;;;;;;;;;;1.18;70.74;94996.63;5016950;28;20643;-72
2023/12/29 04:35:23;;;;;;;;;;;;;;;1.39;70.13;94990.47;5016719;28;19936;-72
2023/12/29 04:37:49;;;;;;;;;;;;;;;2.09;67.87;94994.78;5017006;28;20126;-72
2023/12/29 04:40:14;;;;;;;;;;;;;;;1.78;68.28;95014.16;5016596;28;19929;-72
2023/12/29 04:42:40;;;;;;;;;;;;;;;1.61;69.56;94999.91;5016610;28;20154;-72
2023/12/29 04:45:05;;;;;;;;;;;;;;;1.66;69.63;95000.31;5016419;28;19925;-71
2023/12/29 04:47:31;;;;;;;;;;;;;;;1.28;71.53;95004.50;5016770;28;20378;-71
2023/12/29 04:49:56;;;;;;;;;;;;;;;1.35;70.93;95009.09;5016718;28;19944;-72
2023/12/29 04:52:21;;;;;;;;;;;;;;;1.28;70.75;95023.72;5014410;28;19998;-72
2023/12/29 04:54:47;;;;;;;;;;;;;;;1.49;69.66;94989.50;5016178;28;19951;-72
2023/12/29 04:57:12;;;;;;;;;;;;;;;1.47;70.94;94993.25;5017429;28;20043;-72
2023/12/29 04:59:37;;;;;;;;;;;;;;;2.33;67.08;94980.38;5016352;28;19929;-72
2023/12/29 05:02:03;;;;;;;;;;;;;;;2.46;66.24;95001.09;5015149;28;20087;-72
2023/12/29 05:04:28;;;;;;;;;;;;;;;2.09;67.74;94973.78;5016396;28;20674;-72
2023/12/29 05:06:53;;;;;;;;;;;;;;;2.53;65.80;94989.03;5016906;28;19925;-72
2023/12/29 05:09:18;;;;;;;;;;;;;;;2.35;66.78;94987.13;5016314;28;19921;-72
2023/12/29 05:11:44;;;;;;;;;;;;;;;2.07;66.85;95000.19;5016689;28;20389;-72
2023/12/29 05:14:09;;;;;;;;;;;;;;;1.96;68.54;94969.66;5014772;28;20178;-72
2023/12/29 05:16:35;;;;;;;;;;;;;;;2.41;66.92;94969.16;5017209;28;19921;-72
2023/12/29 05:19:00;;;;;;;;;;;;;;;1.95;69.34;94975.88;5016306;28;20294;-72
2023/12/29 05:21:26;;;;;;;;;;;;;;;2.72;66.06;94977.63;5012465;28;19916;-72
2023/12/29 05:23:51;;;;;;;;;;;;;;;1.90;68.53;95006.16;5016046;28;19960;-72
2023/12/29 05:26:17;;;;;;;;;;;;;;;1.99;68.01;95002.69;5016539;28;20417;-72
2023/12/29 05:28:42;;;;;;;;;;;;;;;2.55;66.24;94991.53;5016568;28;19983;-72
2023/12/29 05:31:08;;;;;;;;;;;;;;;3.09;64.22;94980.38;5016712;28;19929;-72
2023/12/29 05:33:33;;;;;;;;;;;;;;;2.49;66.17;94980.59;5015870;28;19926;-72
2023/12/29 05:35:58;;;;;;;;;;;;;;;2.30;66.51;95007.75;5016777;28;19936;-72
2023/12/29 05:38:24;;;;;;;;;;;;;;;2.01;68.54;94982.38;5015910;28;20005;-72
2023/12/29 05:40:49;;;;;;;;;;;;;;;2.43;66.79;94983.81;5016608;28;19965;-72
2023/12/29 05:43:15;;;;;;;;;;;;;;;1.28;71.97;94989.63;5014758;28;19974;-72
2023/12/29 05:45:40;;;;;;;;;;;;;;;1.94;69.29;94999.66;5016599;28;19968;-72
2023/12/29 05:48:06;;;;;;;;;;;;;;;1.73;69.18;94983.06;5015513;28;19932;-72
2023/12/29 05:50:31;;;;;;;;;;;;;;;2.18;67.41;94995.75;5016506;28;20089;-72
2023/12/29 05:52:56;;;;;;;;;;;;;;;2.83;65.99;94978.41;5015343;28;20524;-72
2023/12/29 05:55:21;;;;;;;;;;;;;;;2.42;67.46;94990.03;5016314;28;19968;-72
2023/12/29 05:57:47;;;;;;;;;;;;;;;1.44;70.37;95019.75;5015462;28;19929;-72
2023/12/29 06:00:14;;;;;;;;;;;;;;;2.04;67.96;94997.00;5016989;28;19925;-72
2023/12/29 06:02:42;;;;;;;;;;;;;;;2.17;68.60;95012.50;5015737;28;19925;-72
2023/12/29 06:05:09;;;;;;;;;;;;;;;2.10;68.06;95004.31;5016269;28;19919;-72
2023/12/29 06:07:35;;;;;;;;;;;;;;;1.81;68.77;95005.97;5014335;28;19924;-72
2023/12/29 06:10:00;;;;;;;;;;;;;;;1.29;69.81;95009.63;5016097;28;20405;-72
2023/12/29 06:12:25;;;;;;;;;;;;;;;1.73;69.52;94995.34;5014796;28;19921;-72
2023/12/29 06:14:50;;;;;;;;;;;;;;;1.72;69.77;95028.66;5010811;28;19932;-72
2023/12/29 06:17:16;;;;;;;;;;;;;;;1.65;70.26;95014.41;5016287;28;20574;-72
2023/12/29 06:19:41;;;;;;;;;;;;;;;1.87;69.67;95013.31;5017984;28;19955;-72
2023/12/29 06:22:11;;;;;;;;;;;;;;;2.12;69.27;95029.47;5014648;28;19979;-72
2023/12/29 06:24:36;;;;;;;;;;;;;;;1.70;69.81;95033.19;5019374;28;20023;-72
2023/12/29 06:27:02;;;;;;;;;;;;;;;2.19;67.59;95018.41;5019359;28;20746;-72
2023/12/29 06:29:27;;;;;;;;;;;;;;;1.31;71.85;95023.47;5019926;28;20520;-72
2023/12/29 06:31:53;;;;;;;;;;;;;;;1.48;70.75;95036.88;5018902;28;20008;-72
2023/12/29 06:34:18;;;;;;;;;;;;;;;1.64;70.83;95044.25;5019325;28;20023;-72
2023/12/29 06:36:43;;;;;;;;;;;;;;;1.46;73.12;95041.41;5019129;28;20464;-72
2023/12/29 06:39:08;;;;;;;;;;;;;;;1.35;73.61;95056.31;5018930;28;19925;-72
2023/12/29 06:41:34;;;;;;;;;;;;;;;1.22;77.20;95038.19;5019244;28;19972;-72
2023/12/29 06:43:59;;;;;;;;;;;;;;;1.44;75.58;95032.88;5020384;28;19929;-72
2023/12/29 06:46:25;;;;;;;;;;;;;;;1.79;73.51;95023.69;5018466;28;19921;-72
2023/12/29 06:48:50;;;;;;;;;;;;;;;1.40;74.61;95032.28;5019269;28;20473;-70
2023/12/29 06:51:16;;;;;;;;;;;;;;;1.64;74.44;95017.19;5019224;28;20165;-70
2023/12/29 06:53:41;;;;;;;;;;;;;;;1.57;74.47;95025.59;5018130;28;19925;-70
2023/12/29 06:56:07;;;;;;;;;;;;;;;1.30;76.31;95028.84;5018978;28;19995;-70
2023/12/29 06:58:32;;;;;;;;;;;;;;;1.55;75.29;95035.41;5018448;28;19962;-70
2023/12/29 07:00:57;;;;;;;;;;;;;;;1.47;76.13;95040.47;5019080;28;19921;-70
2023/12/29 07:03:22;;;;;;;;;;;;;;;1.74;74.15;95036.41;5018504;28;19983;-70
2023/12/29 07:05:48;;;;;;;;;;;;;;;1.33;74.75;95031.19;5018584;28;20136;-70
2023/12/29 07:08:14;;;;;;;;;;;;;;;1.75;73.24;95032.78;5018503;28;19985;-70
2023/12/29 07:10:39;;;;;;;;;;;;;;;1.33;76.07;95026.75;5017032;28;20290;-70
2023/12/29 07:13:04;;;;;;;;;;;;;;;1.82;74.27;95033.91;5018424;28;19925;-70
2023/12/29 07:15:29;;;;;;;;;;;;;;;1.59;74.93;95026.28;5014028;28;20466;-70
2023/12/29 07:17:54;;;;;;;;;;;;;;;1.86;74.46;95029.19;5018089;28;19996;-70
2023/12/29 07:20:20;;;;;;;;;;;;;;;1.77;73.88;95030.84;5013910;28;19926;-70
2023/12/29 07:22:45;;;;;;;;;;;;;;;1.99;71.81;95031.56;5016714;28;19925;-70
2023/12/29 07:25:11;;;;;;;;;;;;;;;2.16;71.98;95030.03;5019060;28;20027;-70
2023/12/29 07:27:36;;;;;;;;;;;;;;;2.06;72.21;95027.41;5018868;28;19929;-70
2023/12/29 07:30:02;;;;;;;;;;;;;;;2.33;71.48;95022.41;5018307;28;20378;-70
2023/12/29 07:32:27;;;;;;;;;;;;;;;2.79;69.45;95027.81;5018333;28;20456;-70
2023/12/29 07:34:52;;;;;;;;;;;;;;;2.53;70.28;95031.09;5018310;28;20331;-70
2023/12/29 07:37:19;;;;;;;;;;;;;;;2.47;70.99;95029.84;5019994;28;20529;-70
2023/12/29 07:39:47;;;;;;;;;;;;;;;1.95;71.92;95028.41;5017814;28;19953;-70
2023/12/29 07:42:12;;;;;;;;;;;;;;;2.43;71.75;95022.38;5017308;28;20469;-70
2023/12/29 07:44:37;;;;;;;;;;;;;;;3.19;68.48;95015.31;5017916;28;20190;-70
2023/12/29 07:47:04;;;;;;;;;;;;;;;3.32;68.20;95017.63;5016710;28;21901;-70
2023/12/29 07:49:30;;;;;;;;;;;;;;;2.86;68.23;95018.38;5018730;28;20147;-70
2023/12/29 07:51:59;;;;;;;;;;;;;;;3.16;68.89;95010.34;5017475;28;20680;-70
2023/12/29 07:54:24;;;;;;;;;;;;;;;2.21;71.86;95013.88;5015768;28;19960;-70
2023/12/29 07:56:50;;;;;;;;;;;;;;;2.70;70.86;95007.66;5018244;28;19921;-70
2023/12/29 07:59:16;;;;;;;;;;;;;;;3.49;67.34;95007.28;5017403;28;19921;-72
2023/12/29 08:01:41;;;;;;;;;;;;;;;1.25;75.86;95010.88;5017836;28;19921;-72
2023/12/29 08:04:06;;;;;;;;;;;;;;;3.26;69.31;94999.78;5016838;28;19921;-72
2023/12/29 08:06:32;;;;;;;;;;;;;;;2.58;71.50;95007.81;5017153;28;19925;-71
2023/12/29 08:08:57;;;;;;;;;;;;;;;3.01;69.46;95005.59;5017900;28;19925;-72
2023/12/29 08:11:22;;;;;;;;;;;;;;;3.26;69.20;94992.72;5013793;28;20390;-72
2023/12/29 08:13:48;;;;;;;;;;;;;;;3.39;67.85;95002.91;5016154;28;20059;-72
2023/12/29 08:16:13;;;;;;;;;;;;;;;2.96;69.34;95002.56;5018409;28;19913;-72
2023/12/29 08:18:39;;;;;;;;;;;;;;;3.25;68.29;95006.03;5017786;28;19929;-72
2023/12/29 08:21:04;;;;;;;;;;;;;;;1.46;75.31;95009.94;5013378;28;19925;-72
2023/12/29 08:23:29;;;;;;;;;;;;;;;2.97;70.71;95004.25;5016013;28;20265;-72
2023/12/29 08:25:56;;;;;;;;;;;;;;;2.46;70.29;95016.84;5017039;28;19932;-72
2023/12/29 08:28:21;;;;;;;;;;;;;;;3.07;68.64;94992.84;5014883;28;20405;-72
2023/12/29 08:30:47;;;;;;;;;;;;;;;2.55;70.56;95021.25;5015984;28;20004;-72
2023/12/29 08:33:13;;;;;;;;;;;;;;;2.57;70.59;95013.22;5017295;28;20508;-72
2023/12/29 08:35:39;;;;;;;;;;;;;;;2.33;72.04;94998.75;5016309;28;19929;-72
2023/12/29 08:38:04;;;;;;;;;;;;;;;3.42;67.33;94997.34;5015367;28;19929;-72
2023/12/29 08:40:29;;;;;;;;;;;;;;;3.10;67.69;94998.63;5017033;28;19913;-72
2023/12/29 08:42:54;;;;;;;;;;;;;;;2.40;72.34;95010.38;5015968;28;19925;-72
2023/12/29 08:45:20;;;;;;;;;;;;;;;2.67;70.75;95002.66;5012639;28;19967;-72
2023/12/29 08:47:45;;;;;;;;;;;;;;;3.05;68.43;94990.34;5017184;28;20369;-72
2023/12/29 08:50:10;;;;;;;;;;;;;;;2.85;69.69;94989.59;5016931;28;20342;-72
2023/12/29 08:52:36;;;;;;;;;;;;;;;2.24;71.44;95031.94;5015134;28;19925;-72
2023/12/29 08:55:01;;;;;;;;;;;;;;;2.60;69.23;95000.63;5015973;28;20117;-72
2023/12/29 08:57:26;;;;;;;;;;;;;;;2.37;70.83;94984.38;5016899;28;19933;-72
2023/12/29 08:59:51;;;;;;;;;;;;;;;3.08;68.44;94995.31;5015943;28;19925;-72
2023/12/29 09:02:17;;;;;;;;;;;;;;;2.65;70.14;94997.56;5016834;28;20480;-72
2023/12/29 09:04:42;;;;;;;;;;;;;;;2.83;69.48;94989.78;5015630;28;19969;-72
2023/12/29 09:07:07;;;;;;;;;;;;;;;2.89;68.59;95004.94;5016528;28;19921;-72
2023/12/29 09:09:32;;;;;;;;;;;;;;;2.49;70.22;95000.81;5016968;28;20028;-70
2023/12/29 09:11:58;;;;;;;;;;;;;;;2.44;71.09;94998.59;5016972;28;20273;-70
2023/12/29 09:14:23;;;;;;;;;;;;;;;2.46;70.51;95003.72;5010822;28;20012;-70
2023/12/29 09:16:48;;;;;;;;;;;;;;;1.42;75.19;94998.06;5016819;28;19959;-70
2023/12/29 09:19:14;;;;;;;;;;;;;;;3.07;69.03;95006.81;5016333;28;20001;-70
2023/12/29 09:21:39;;;;;;;;;;;;;;;2.69;69.58;94996.28;5010447;28;19962;-70
2023/12/29 09:24:05;;;;;;;;;;;;;;;2.25;71.25;95052.81;5016143;28;19929;-70
2023/12/29 09:26:30;;;;;;;;;;;;;;;2.39;71.18;95006.91;5014488;28;19951;-70
2023/12/29 09:28:55;;;;;;;;;;;;;;;1.96;74.95;95013.44;5015682;28;20245;-70
2023/12/29 09:31:21;;;;;;;;;;;;;;;2.47;72.41;95029.84;5015343;28;20011;-70
2023/12/29 09:33:46;;;;;;;;;;;;;;;2.17;72.09;95018.56;5015988;28;19971;-70
2023/12/29 09:36:11;;;;;;;;;;;;;;;1.93;75.33;95026.84;5016546;28;19925;-70
2023/12/29 09:38:37;;;;;;;;;;;;;;;2.67;71.37;95006.13;5016749;28;19969;-70
2023/12/29 09:41:07;;;;;;;;;;;;;;;1.80;73.09;95019.28;5015962;28;19932;-70
2023/12/29 09:43:32;;;;;;;;;;;;;;;2.16;73.84;95018.69;5014357;28;19932;-70
2023/12/29 09:45:58;;;;;;;;;;;;;;;1.96;74.17;95035.28;5013366;28;19921;-70
2023/12/29 09:48:26;;;;;;;;;;;;;;;1.69;75.72;95041.22;5016773;28;19978;-70
2023/12/29 09:50:52;;;;;;;;;;;;;;;1.80;75.63;95032.41;5011993;28;19963;-70
2023/12/29 09:53:17;;;;;;;;;;;;;;;1.48;77.27;95008.84;5014183;28;19920;-70
2023/12/29 09:55:42;;;;;;;;;;;;;;;1.60;77.04;95019.25;5018261;28;20027;-70
2023/12/29 09:58:08;;;;;;;;;;;;;;;1.92;75.71;95027.81;5019360;28;20003;-70
2023/12/29 10:00:33;;;;;;;;;;;;;;;1.87;75.95;95025.59;5020709;28;19933;-70
2023/12/29 10:02:59;;;;;;;;;;;;;;;2.07;74.28;95015.94;5012628;28;19933;-70
2023/12/29 10:05:24;;;;;;;;;;;;;;;1.83;76.87;95016.34;5019739;28;19928;-70
2023/12/29 10:07:49;;;;;;;;;;;;;;;1.69;76.19;95031.56;5018973;28;20333;-70
2023/12/29 10:10:15;;;;;;;;;;;;;;;1.53;77.78;95016.31;5017715;28;19925;-70
2023/12/29 10:12:41;;;;;;;;;;;;;;;1.61;76.91;95034.84;5017260;28;19972;-70
2023/12/29 10:15:10;;;;;;;;;;;;;;;1.42;77.73;95040.03;5011645;28;19929;-70
2023/12/29 10:17:51;;;;;;;;;;;;;;;1.89;76.62;95036.81;5016591;28;19917;-70
2023/12/29 10:20:23;;;;;;;;;;;;;;;2.10;75.36;95062.94;5018385;28;20126;-71
2023/12/29 10:22:54;;;;;;;;;;;;;;;1.64;78.35;95032.91;5017623;28;20078;-71
2023/12/29 10:25:19;;;;;;;;;;;;;;;1.47;82.02;95020.28;5017255;28;20012;-71
2023/12/29 10:27:45;;;;;;;;;;;;;;;1.52;79.99;95014.66;5019096;28;20037;-71
2023/12/29 10:30:10;;;;;;;;;;;;;;;2.24;76.36;95021.44;5017918;28;20793;-71
2023/12/29 10:32:35;;;;;;;;;;;;;;;1.68;78.76;95060.56;5018233;28;19917;-71
2023/12/29 10:35:10;;;;;;;;;;;;;;;1.87;78.51;95043.97;5018615;28;19929;-71
2023/12/29 10:37:36;;;;;;;;;;;;;;;1.49;80.37;95033.28;5018214;28;20671;-71
2023/12/29 10:40:01;;;;;;;;;;;;;;;1.59;78.70;95077.94;5019544;28;20012;-72
2023/12/29 10:42:27;;;;;;;;;;;;;;;1.69;79.41;95028.09;5019200;28;20398;-72
2023/12/29 10:45:04;;;;;;;;;;;;;;;1.88;78.04;95025.47;5015827;28;19939;-72
2023/12/29 10:47:30;;;;;;;;;;;;;;;1.95;77.51;95024.94;5017471;28;19925;-72
2023/12/29 10:49:58;;;;;;;;;;;;;;;2.06;76.17;95014.28;5018708;28;20316;-72
2023/12/29 10:52:23;;;;;;;;;;;;;;;1.87;76.86;95013.31;5018738;28;20538;-72
2023/12/29 10:54:49;;;;;;;;;;;;;;;1.88;76.90;95014.16;5018627;28;19937;-72
2023/12/29 10:57:14;;;;;;;;;;;;;;;1.80;77.59;95017.47;5019608;28;20452;-72
2023/12/29 10:59:39;;;;;;;;;;;;;;;1.38;77.65;95023.75;5018503;28;19971;-72
2023/12/29 11:02:05;;;;;;;;;;;;;;;2.04;75.87;95018.03;5018673;28;20035;-72
2023/12/29 11:04:30;;;;;;;;;;;;;;;2.24;74.67;95024.91;5000736;28;19925;-72
2023/12/29 11:06:55;;;;;;;;;;;;;;;1.98;75.53;95040.41;5017238;28;20142;-72
2023/12/29 11:09:27;;;;;;;;;;;;;;;1.74;77.24;95031.16;5019196;28;19983;-71
2023/12/29 11:11:52;;;;;;;;;;;;;;;1.57;77.49;95014.28;5017492;28;20635;-72
2023/12/29 11:14:19;;;;;;;;;;;;;;;1.47;78.72;95011.63;5010449;28;19928;-71
2023/12/29 11:16:45;;;;;;;;;;;;;;;1.69;77.70;95025.47;5017191;28;19917;-71
2023/12/29 11:19:10;;;;;;;;;;;;;;;2.22;75.26;95026.03;5018478;28;19951;-72
2023/12/29 11:21:35;;;;;;;;;;;;;;;2.12;76.18;95011.06;5016700;28;20063;-72
2023/12/29 11:24:00;;;;;;;;;;;;;;;2.00;76.72;95048.97;5017767;28;19959;-72
2023/12/29 11:26:25;;;;;;;;;;;;;;;1.72;77.39;95019.94;5018494;28;20573;-71
2023/12/29 11:28:51;;;;;;;;;;;;;;;1.69;78.03;95018.44;5016957;28;19917;-71
2023/12/29 11:31:16;;;;;;;;;;;;;;;1.50;78.47;95006.09;5016817;28;19921;-72
2023/12/29 11:33:43;;;;;;;;;;;;;;;1.34;78.17;95020.56;5017378;28;19928;-70
2023/12/29 11:36:16;;;;;;;;;;;;;;;1.45;78.35;95008.28;5011672;28;19994;-70
2023/12/29 11:38:48;;;;;;;;;;;;;;;1.71;77.19;95018.28;5017826;28;19932;-70
2023/12/29 11:41:32;;;;;;;;;;;;;;;1.35;78.72;95024.84;5011514;28;19921;-70
2023/12/29 11:43:57;;;;;;;;;;;;;;;1.48;79.55;95008.00;5014418;28;20402;-72
2023/12/29 11:46:32;;;;;;;;;;;;;;;1.93;76.81;95013.72;5016054;28;19967;-72
2023/12/29 11:48:58;;;;;;;;;;;;;;;1.90;75.94;95017.47;5018881;28;20027;-72
2023/12/29 11:51:29;;;;;;;;;;;;;;;2.24;74.95;95011.78;5016746;28;19952;-72
2023/12/29 11:53:54;;;;;;;;;;;;;;;2.22;75.22;95015.50;5017253;28;19948;-72
2023/12/29 11:56:20;;;;;;;;;;;;;;;2.24;74.21;95005.69;5017854;28;20419;-72
2023/12/29 11:58:45;;;;;;;;;;;;;;;2.34;74.12;94987.28;5016584;28;20156;-72
2023/12/29 12:01:10;;;;;;;;;;;;;;;2.11;74.98;95003.38;5017510;28;20496;-72
2023/12/29 12:03:35;;;;;;;;;;;;;;;2.20;76.27;94992.00;5017626;28;20016;-72
2023/12/29 12:06:03;;;;;;;;;;;;;;;1.51;78.45;95002.50;5017706;28;19936;-72
2023/12/29 12:08:28;;;;;;;;;;;;;;;1.52;78.81;95004.16;5017954;28;19921;-72
2023/12/29 12:10:54;;;;;;;;;;;;;;;2.22;75.71;94986.63;5016513;28;20125;-72
2023/12/29 12:13:38;;;;;;;;;;;;;;;2.12;75.51;94979.56;5010167;28;20630;-72
2023/12/29 12:16:03;;;;;;;;;;;;;;;2.29;74.98;94985.09;5017779;28;20023;-72
2023/12/29 12:18:29;;;;;;;;;;;;;;;1.84;76.46;94992.59;5016501;28;20051;-72
2023/12/29 12:20:54;;;;;;;;;;;;;;;1.56;77.33;94984.56;5016196;28;20239;-72
2023/12/29 12:23:19;;;;;;;;;;;;;;;1.66;77.47;95002.13;5016848;28;19983;-70
2023/12/29 12:25:45;;;;;;;;;;;;;;;1.84;75.99;94979.47;5016275;28;20541;-71
2023/12/29 12:28:10;;;;;;;;;;;;;;;1.88;76.19;94974.78;5017370;28;19951;-71
2023/12/29 12:30:36;;;;;;;;;;;;;;;1.60;77.32;94993.81;5016131;28;19952;-71
2023/12/29 12:33:02;;;;;;;;;;;;;;;2.09;75.44;95026.31;5016838;28;20128;-70
2023/12/29 12:35:28;;;;;;;;;;;;;;;1.91;75.47;94978.91;5016025;28;20435;-70
2023/12/29 12:38:09;;;;;;;;;;;;;;;2.24;74.84;94966.28;5017042;28;19921;-70
2023/12/29 12:40:34;;;;;;;;;;;;;;;2.35;74.17;94979.25;5017610;28;19921;-72
2023/12/29 12:43:00;;;;;;;;;;;;;;;2.22;74.48;94974.28;5017134;28;19967;-72
2023/12/29 12:45:25;;;;;;;;;;;;;;;2.16;74.99;94979.28;5016278;28;20582;-71
2023/12/29 12:47:55;;;;;;;;;;;;;;;2.18;74.98;94966.84;5017752;28;19925;-72
2023/12/29 12:50:20;;;;;;;;;;;;;;;2.17;74.42;94968.66;5018750;28;19924;-72